3S8

Grants Pass Airport

Grants Pass, Oregon, USA
METAR K3S8 210915Z AUTO 00000KT 6SM BR BKN035 BKN046 OVC065 04/04 A3005 RMK AO2
Observed Flight Rules
Jan-21 @ 09:15 UTC (31 minutes ago) Visual Flight Rules
Visibility Clouds Conditions
6 miles
  • Broken at 3,500' AGL
  • Broken at 4,600' AGL
  • Overcast at 6,500' AGL
  • Mist
Temperatures Readings
Current 4°C / 39°F
Dewpoint 4°C / 39°F
Humidity 100%
Altimeter 30.05" Hg
Pressure 1017.62 hPa
Elevation 343
METAR K3S8 210915Z AUTO 00000KT 6SM BR BKN035 BKN046 OVC065 04/04 A3005 RMK AO2
Observed Flight Rules
Jan-21 @ 09:15 UTC
(31 minutes ago)
VFR
Clouds
  • Broken at 3,500' AGL
  • Broken at 4,600' AGL
  • Overcast at 6,500' AGL
Conditions
  • Mist
Temperature Dewpoint
4°C / 39°F 4°C / 39°F
Humidity Altimeter Pressure
100% 30.05" Hg 1017.62 hPa